Weather observations for the past three days for
Boone Municipal
Imperial (Metric)
Date Time (cdt) Wind (mph) Vis. (mi.) Weather Sky Cond. Temperature (ºF) Relative Humidity Wind Chill (°F) Heat Index (°F) Pressure Precipitation (in)
Air Dwpt 6 hour altimeter (in) sea level (mb) 1 hr 3 hr 6 hr
Max. Min.
04 12:15 SW 8 10.00 Fair CLR 87.8 75.2 66% 98 29.89 0.0
04 11:55 SW 10 10.00 Fair CLR 87.8 75.2 66% 98 29.9 0.0
04 11:35 SW 9 10.00 Fair CLR 86 75.2 70% 95 29.9 0.0
04 11:15 Calm 10.00 Fair CLR 86 75.2 70% 95 29.9 0.0
04 10:55 SW 9 10.00 Fair CLR 84.2 73.4 70% 91 29.89 0.0
04 10:35 SW 8 10.00 Fair CLR 84.2 73.4 70% 91 29.89 0.0
04 10:15 SW 6 G 14 10.00 Fair CLR 84.2 73.4 70% 91 29.88 0.0
04 09:55 SW 9 10.00 Fair CLR 82.4 71.6 70% 87 29.88 0.0
04 09:35 SW 8 G 15 10.00 Fair CLR 82.4 71.6 70% 87 29.88 0.0
04 09:15 Vrbl 5 10.00 Fair CLR 78.8 73.4 84% 82 29.89 0.0
04 08:55 SE 6 10.00 Fair CLR 77 71.6 83% 78 29.89 0.0
04 08:35 Calm 10.00 A Few Clouds FEW100 FEW120 73.4 71.6 94% 29.89 0.0
04 08:15 SE 5 10.00 Mostly Cloudy BKN100 BKN120 73.4 71.6 94% 29.89 0.0
04 07:55 S 6 10.00 A Few Clouds FEW100 73.4 69.8 89% 29.88 0.0
04 07:35 Vrbl 5 10.00 Mostly Cloudy BKN100 75.2 69.8 83% 75 29.87 0.0
04 07:15 S 6 10.00 Overcast OVC095 75.2 69.8 83% 75 29.87 0.0
04 06:55 S 5 10.00 Mostly Cloudy BKN095 73.4 69.8 89% 29.87 0.0
04 06:35 Calm 10.00 Overcast OVC095 73.4 69.8 89% 29.87 0.0
04 06:15 S 3 10.00 NULL NULL 75.2 69.8 83% 75 29.87 0.0
04 05:55 SW 5 10.00 NULL NULL 75.2 69.8 83% 75 29.86 0.0
04 05:35 S 6 10.00 NULL NULL 75.2 69.8 83% 75 29.86 0.0
04 05:15 SW 6 10.00 NULL NULL 75.2 69.8 83% 75 29.86 0.0
04 04:55 S 6 10.00 NULL NULL 75.2 69.8 83% 75 29.86 0.0
04 04:15 S 5 10.00 Fair CLR 75.2 69.8 83% 75 29.86 0.0
04 03:55 Vrbl 5 10.00 NULL NULL 77 69.8 79% 79 29.86 0.0
04 03:35 Vrbl 3 10.00 NULL NULL 77 69.8 79% 79 29.85 0.0
04 03:15 S 3 10.00 NULL NULL 75.2 71.6 89% 75 29.85 0.0
04 02:55 Calm 10.00 Fair CLR 73.4 71.6 94% 29.85 0.0
04 02:35 Calm 10.00 Fair CLR 75.2 71.6 89% 75 29.85 0.0
04 02:15 S 3 10.00 Fair CLR 77 71.6 83% 78 29.85 0.0
04 01:55 Vrbl 5 10.00 Fair CLR 77 71.6 83% 78 29.85 0.0
04 01:35 Vrbl 5 0.00 Fair CLR 77 71.6 83% 78 29.85 0.0
04 01:15 S 5 10.00 Fair CLR 77 71.6 83% 78 29.85 0.0
04 00:55 S 6 10.00 NULL NULL 77 71.6 83% 78 29.85 0.0
04 00:35 S 5 10.00 NULL NULL 75.2 71.6 89% 75 29.85 0.0
04 00:15 S 6 10.00 Fair CLR 77 71.6 83% 78 29.85 0.0
03 23:55 S 5 10.00 Fair CLR 77 71.6 83% 78 29.85 0.0
03 23:35 Vrbl 5 10.00 Fair CLR 77 71.6 83% 78 29.85 0.0
03 23:15 S 5 10.00 NULL NULL 77 71.6 83% 78 29.85 0.0
03 22:55 S 6 10.00 NULL NULL 77 71.6 83% 78 29.85 0.0
03 22:35 S 5 10.00 Fair CLR 77 71.6 83% 78 29.85 0.0
03 22:15 S 3 10.00 NULL NULL 78.8 73.4 84% 82 29.85 0.0
03 21:55 S 5 10.00 NULL NULL 78.8 73.4 84% 82 29.85 0.0
03 21:35 S 5 10.00 NULL NULL 77 73.4 89% 78 29.84 0.0
03 21:15 Calm 10.00 NULL NULL 78.8 73.4 84% 82 29.84 0.0
03 20:55 S 5 10.00 Fair CLR 80.6 73.4 79% 85 29.83 0.0
03 20:35 S 3 10.00 Fair CLR 80.6 73.4 79% 85 29.82 0.0
03 20:15 S 6 10.00 Fair CLR 82.4 73.4 74% 88 29.82 0.0
03 19:55 S 6 10.00 Fair CLR 82.4 73.4 74% 88 29.81 0.0
03 19:35 Vrbl 6 10.00 Fair CLR 84.2 73.4 70% 91 29.81 0.0
03 19:15 S 5 G 12 10.00 Fair CLR 86 73.4 66% 93 29.81 0.0
03 18:55 S 6 10.00 Fair CLR 87.8 73.4 62% 96 29.81 0.0
03 18:35 S 7 10.00 Fair CLR 89.6 73.4 59% 98 29.81 0.0
03 18:15 Vrbl 6 10.00 Fair CLR 89.6 73.4 59% 98 29.81 0.0
03 17:55 S 9 10.00 Fair CLR 89.6 73.4 59% 98 29.81 0.0
03 17:35 S 8 G 15 10.00 Fair CLR 91.4 73.4 56% 100 29.81 0.0
03 17:15 S 10 10.00 Fair CLR 89.6 75.2 63% 100 29.81 0.0
03 16:55 SE 9 G 17 10.00 Fair CLR 89.6 77 67% 103 29.82 0.0
03 16:35 SE 10 10.00 Fair CLR 89.6 75.2 63% 100 29.83 0.0
03 16:15 SE 13 G 18 10.00 Fair CLR 87.8 75.2 66% 98 29.83 0.0
03 15:55 SE 13 G 18 10.00 Fair CLR 87.8 77 70% 100 29.83 0.0
03 15:35 SE 12 G 20 10.00 Fair CLR 86 75.2 70% 95 29.84 0.0
03 15:15 SE 14 10.00 Fair CLR 86 75.2 70% 95 29.85 0.0
03 14:55 SE 14 10.00 A Few Clouds FEW100 84.2 75.2 74% 92 29.86 0.0
03 14:35 SE 12 10.00 Partly Cloudy SCT100 82.4 75.2 79% 89 29.86 0.0
03 14:15 SE 12 G 17 10.00 Fair CLR 80.6 75.2 84% 86 29.87 0.0
03 13:55 SE 15 10.00 A Few Clouds FEW095 78.8 75.2 89% 82 29.88 0.0 0.13
03 13:35 E 12 8.00 Partly Cloudy FEW025 FEW044 SCT075 77 75.2 94% 78 29.89 0.0
03 13:15 E 7 4.00 Light Rain FEW039 SCT050 BKN095 75.2 75.2 100% 73 29.91 0.0
03 12:55 NE 9 0.00 NULL NULL 77 75.2 94% 78 29.9 0.0
03 12:35 N 7 8.00 Light Rain SCT070 BKN085 OVC110 78.8 75.2 89% 82 29.91 0.0
03 12:15 Calm 10.00 Mostly Cloudy BKN095 BKN110 78.8 75.2 89% 82 29.9 0.0
03 11:55 Calm 9.00 A Few Clouds FEW100 78.8 75.2 89% 82 29.91 0.0
03 11:35 SE 6 10.00 A Few Clouds FEW065 FEW095 FEW110 78.8 73.4 84% 82 29.91 0.0
03 11:15 E 5 10.00 Fair CLR 77 73.4 89% 78 29.89 0.0
03 10:35 SE 5 10.00 Fair CLR 75.2 73.4 94% 74 29.91 0.0
03 10:15 SE 6 10.00 Fair CLR 75.2 73.4 94% 74 29.91 0.0
03 09:55 SE 6 10.00 Fair CLR 75.2 71.6 89% 75 29.9 0.0
03 09:35 SE 6 10.00 Fair CLR 75.2 71.6 89% 75 29.91 0.0
03 09:15 SE 8 10.00 Fair CLR 77 71.6 83% 78 29.9 0.0
03 08:55 SE 6 10.00 Fair CLR 77 71.6 83% 78 29.89 0.0
03 08:35 SE 7 10.00 Fair CLR 75.2 71.6 89% 75 29.9 0.0
03 08:15 E 6 10.00 Fair CLR 75.2 71.6 89% 75 29.9 0.0
03 07:55 Calm 10.00 Fair CLR 75.2 71.6 89% 75 29.91 0.0
03 07:35 E 3 10.00 Fair CLR 73.4 71.6 94% 29.9 0.0
03 07:15 E 5 10.00 Fair CLR 73.4 71.6 94% 29.9 0.0
03 06:55 E 5 10.00 A Few Clouds FEW075 FEW100 FEW120 73.4 69.8 89% 29.89 0.0
03 06:35 N 5 10.00 NULL NULL 73.4 69.8 89% 29.89 0.0
03 06:15 N 9 G 15 10.00 NULL NULL 75.2 69.8 83% 75 29.89 0.0
03 05:55 SW 5 10.00 NULL NULL 75.2 69.8 83% 75 29.87 0.0
03 05:35 SW 6 10.00 NULL NULL 77 68 74% 79 29.86 0.0
03 05:15 S 5 10.00 NULL NULL 75.2 69.8 83% 75 29.85 0.0
03 04:55 SW 6 10.00 NULL NULL 75.2 69.8 83% 75 29.85 0.0
03 04:35 S 5 10.00 Fair CLR 75.2 69.8 83% 75 29.85 0.0
03 04:15 SW 5 10.00 Fair CLR 75.2 69.8 83% 75 29.85 0.0
03 03:55 S 5 10.00 Fair CLR 75.2 69.8 83% 75 29.85 0.0
03 03:35 S 7 10.00 NULL NULL 75.2 69.8 83% 75 29.84 0.0
03 03:15 S 5 10.00 NULL NULL 75.2 69.8 83% 75 29.84 0.0
03 02:55 S 5 10.00 Fair CLR 77 69.8 79% 79 29.84 0.0
03 02:35 S 6 10.00 Fair CLR 77 69.8 79% 79 29.84 0.0
03 02:15 S 5 10.00 Fair CLR 77 69.8 79% 79 29.85 0.0
03 01:55 S 6 10.00 NULL NULL 78.8 69.8 74% 81 29.85 0.0
03 01:35 Vrbl 5 G 13 10.00 NULL NULL 78.8 69.8 74% 81 29.85 0.0
03 01:15 S 6 10.00 Fair CLR 78.8 69.8 74% 81 29.85 0.0
03 00:55 S 7 10.00 Fair CLR 80.6 69.8 70% 84 29.85 0.0
03 00:35 S 8 10.00 Fair CLR 80.6 69.8 70% 84 29.85 0.0
03 00:15 S 7 G 13 10.00 Fair CLR 80.6 69.8 70% 84 29.85 0.0
02 23:55 Vrbl 7 10.00 Fair CLR 78.8 71.6 79% 82 29.85 0.0
02 23:35 S 5 10.00 NULL NULL 78.8 71.6 79% 82 29.85 0.0
02 23:15 S 6 10.00 NULL NULL 78.8 71.6 79% 82 29.85 0.0
02 22:55 S 6 10.00 Fair CLR 80.6 71.6 74% 85 29.85 0.0
02 22:35 Vrbl 6 10.00 Fair CLR 80.6 71.6 74% 85 29.86 0.0
02 22:15 Vrbl 6 10.00 NULL NULL 80.6 73.4 79% 85 29.86 0.0
02 21:55 S 5 10.00 Fair CLR 80.6 73.4 79% 85 29.86 0.0
02 21:35 S 7 10.00 Fair CLR 82.4 73.4 74% 88 29.85 0.0
02 21:15 S 6 10.00 NULL NULL 82.4 73.4 74% 88 29.85 0.0
02 20:55 S 6 10.00 Fair CLR 82.4 73.4 74% 88 29.85 0.0
02 20:35 S 6 10.00 NULL NULL 82.4 73.4 74% 88 29.84 0.0
02 20:15 S 5 10.00 A Few Clouds FEW120 84.2 73.4 70% 91 29.84 0.0
02 19:55 S 5 10.00 Fair CLR 84.2 75.2 74% 92 29.83 0.0
02 19:35 S 5 10.00 Fair CLR 84.2 75.2 74% 92 29.83 0.0
02 19:15 S 5 10.00 Fair CLR 86 75.2 70% 95 29.83 0.0
02 18:55 S 5 10.00 Fair CLR 86 75.2 70% 95 29.84 0.0
02 18:35 S 6 10.00 Fair CLR 87.8 75.2 66% 98 29.83 0.0
02 18:15 S 5 10.00 Fair CLR 87.8 75.2 66% 98 29.83 0.0
02 17:55 S 6 10.00 Fair CLR 89.6 77 67% 103 29.84 0.0
02 17:35 SE 6 10.00 Fair CLR 89.6 77 67% 103 29.84 0.0
02 17:15 SE 9 10.00 Fair CLR 89.6 75.2 63% 100 29.84 0.0
02 16:55 SE 9 0.00 Fair CLR 87.8 75.2 66% 98 29.84 0.0
02 16:35 SE 8 10.00 A Few Clouds FEW110 86 75.2 70% 95 29.85 0.0
02 16:15 S 8 10.00 A Few Clouds FEW055 FEW065 FEW110 84.2 73.4 70% 91 29.85 0.0
02 15:55 Calm 7.00 Light Drizzle FEW050 SCT065 BKN110 80.6 75.2 84% 86 29.86 0.0 0.07
02 15:35 S 6 9.00 Mostly Cloudy BKN100 82.4 78.8 89% 92 29.89 0.0
02 15:15 SE 9 6.00 Light Rain FEW042 SCT100 SCT120 82.4 77 84% 91 29.87 0.0
02 14:55 SE 8 8.00 Partly Cloudy FEW042 FEW060 SCT120 82.4 77 84% 91 29.88 0.0 0.02
02 14:35 S 5 9.00 A Few Clouds FEW043 FEW065 FEW100 86 71.6 62% 92 29.9 0.0
02 14:15 SE 3 10.00 Partly Cloudy SCT100 86 71.6 62% 92 29.9 0.0
02 14:00 S 3 10.00 Mostly Cloudy BKN100 86 71.6 62% 92 29.9 0.0
02 13:35 Calm 8.00 Light Rain BKN100 BKN120 84.2 71.6 66% 90 29.91 0.0
02 13:15 S 8 10.00 Fair CLR 87.8 69.8 55% 93 29.91 0.0
02 12:55 Vrbl 6 10.00 Fair CLR 89.6 71.6 55% 96 29.9 0.0
02 12:35 Vrbl 6 10.00 A Few Clouds FEW100 87.8 69.8 55% 93 29.92 0.0
02 12:15 S 7 10.00 Partly Cloudy SCT100 86 68 55% 89 29.92 0.0
02 11:55 SE 6 10.00 Partly Cloudy SCT100 SCT120 86 68 55% 89 29.93 0.0
02 11:35 S 6 G 14 10.00 A Few Clouds FEW100 FEW120 86 68 55% 89 29.93 0.0
02 11:15 SE 10 10.00 Fair CLR 87.8 68 52% 91 29.92 0.0
02 10:55 SE 9 10.00 Fair CLR 84.2 69.8 62% 88 29.93 0.0
02 10:35 SE 12 10.00 Fair CLR 82.4 68 62% 85 29.92 0.0
02 10:15 SE 7 G 13 10.00 Fair CLR 84.2 69.8 62% 88 29.94 0.0
02 09:55 SE 8 G 14 10.00 Fair CLR 82.4 71.6 70% 87 29.93 0.0
02 09:35 SE 9 10.00 Fair CLR 80.6 69.8 70% 84 29.92 0.0
02 09:20 SE 7 G 13 9.00 Fair CLR 78.8 69.8 74% 81 29.92 0.0
02 08:55 SE 9 10.00 A Few Clouds FEW110 77 69.8 79% 79 29.93 0.0
02 08:35 SE 7 10.00 Partly Cloudy SCT110 75.2 69.8 83% 75 29.93 0.0
02 08:15 SE 7 10.00 Mostly Cloudy BKN110 75.2 69.8 83% 75 29.94 0.0
02 07:55 SE 6 10.00 A Few Clouds FEW110 73.4 68 83% 29.93 0.0
02 07:35 SE 8 10.00 Fair CLR 71.6 68 88% 29.94 0.0
02 07:15 SE 7 10.00 Fair CLR 69.8 66.2 88% 29.94 0.0
02 06:55 E 5 10.00 NULL NULL 69.8 66.2 88% 29.93 0.0
02 06:35 E 6 0.00 NULL NULL 69.8 66.2 88% 29.93 0.0
02 06:15 E 6 10.00 NULL NULL 71.6 66.2 83% 29.94 0.0
02 05:55 E 8 10.00 NULL NULL 71.6 68 88% 29.94 0.0
02 05:35 NE 13 G 25 10.00 NULL NULL 75.2 64.4 69% 77 29.94 0.0
02 05:15 W 9 G 21 10.00 NULL NULL 73.4 68 83% 29.95 0.0
02 04:55 N 10 10.00 NULL NULL 73.4 69.8 89% 29.96 0.0
02 04:40 N 9 10.00 NULL NULL 73.4 69.8 89% 29.96 0.0
02 04:20 NW 13 10.00 Partly Cloudy SCT100 SCT120 75.2 68 78% 76 29.95 0.0
02 03:55 NW 13 G 24 10.00 NULL NULL 77 68 74% 79 29.95 0.0
02 03:35 SW 6 10.00 NULL NULL 77 66.2 69% 79 29.9 0.0
02 03:15 S 5 10.00 NULL NULL 77 66.2 69% 79 29.89 0.0
02 02:55 S 7 10.00 Mostly Cloudy SCT095 BKN120 77 66.2 69% 79 29.89 0.0
02 02:35 S 8 10.00 Overcast OVC095 78.8 66.2 65% 81 29.89 0.0
02 02:15 S 7 G 13 10.00 Partly Cloudy SCT095 78.8 66.2 65% 81 29.89 0.0
02 01:55 Vrbl 7 G 14 10.00 Fair CLR 78.8 66.2 65% 81 29.88 0.0
02 01:35 S 7 10.00 NULL NULL 77 68 74% 79 29.86 0.0
02 01:15 S 8 G 14 10.00 NULL NULL 78.8 68 70% 81 29.87 0.0
02 00:55 Vrbl 7 10.00 NULL NULL 78.8 68 70% 81 29.87 0.0
02 00:35 S 8 10.00 Fair CLR 80.6 68 66% 83 29.88 0.0
02 00:15 S 9 10.00 Fair CLR 80.6 68 66% 83 29.88 0.0
01 23:55 S 7 G 15 10.00 Fair CLR 80.6 68 66% 83 29.89 0.0
01 23:35 S 8 10.00 Fair CLR 80.6 68 66% 83 29.88 0.0
01 23:15 S 7 10.00 Fair CLR 80.6 69.8 70% 84 29.89 0.0
01 22:55 Vrbl 6 10.00 NULL NULL 78.8 69.8 74% 81 29.89 0.0
01 22:35 S 5 10.00 NULL NULL 78.8 71.6 79% 82 29.89 0.0
01 22:15 S 5 10.00 Fair CLR 78.8 71.6 79% 82 29.89 0.0
01 21:55 S 5 10.00 NULL NULL 78.8 71.6 79% 82 29.88 0.0
01 21:35 S 6 10.00 NULL NULL 80.6 71.6 74% 85 29.88 0.0
01 21:15 S 6 10.00 NULL NULL 80.6 73.4 79% 85 29.87 0.0
01 20:55 S 6 10.00 NULL NULL 80.6 73.4 79% 85 29.87 0.0
01 20:35 S 6 10.00 NULL NULL 80.6 73.4 79% 85 29.87 0.0
01 20:15 SE 5 10.00 Fair CLR 82.4 73.4 74% 88 29.86 0.0
01 19:55 S 6 10.00 Fair CLR 84.2 73.4 70% 91 29.86 0.0
01 19:35 S 6 10.00 Fair CLR 84.2 73.4 70% 91 29.86 0.0
01 19:15 S 5 10.00 Fair CLR 87.8 73.4 62% 96 29.86 0.0
01 18:55 S 5 10.00 Fair CLR 87.8 73.4 62% 96 29.87 0.0
01 18:35 S 5 10.00 Fair CLR 89.6 73.4 59% 98 29.87 0.0
01 18:15 S 5 10.00 Fair CLR 89.6 73.4 59% 98 29.87 0.0
01 17:55 Vrbl 5 10.00 Fair CLR 91.4 73.4 56% 100 29.87 0.0
01 17:35 Vrbl 5 G 12 10.00 Fair CLR 91.4 73.4 56% 100 29.87 0.0
01 17:15 S 9 G 16 10.00 Fair CLR 91.4 71.6 52% 99 29.88 0.0
01 16:55 S 8 10.00 Fair CLR 91.4 73.4 56% 100 29.88 0.0
01 16:35 S 8 10.00 Fair CLR 91.4 71.6 52% 99 29.88 0.0
01 16:15 S 8 G 15 10.00 Fair CLR 91.4 71.6 52% 99 29.88 0.0
01 15:55 Vrbl 7 G 13 10.00 Fair CLR 91.4 71.6 52% 99 29.89 0.0
01 15:35 Vrbl 5 G 12 10.00 Fair CLR 91.4 71.6 52% 99 29.9 0.0
01 15:15 SW 7 10.00 Fair CLR 91.4 71.6 52% 99 29.91 0.0
01 14:55 Vrbl 7 10.00 Fair CLR 91.4 71.6 52% 99 29.91 0.0
01 14:35 S 7 10.00 Fair CLR 89.6 71.6 55% 96 29.92 0.0
01 14:15 Vrbl 7 9.00 Fair CLR 89.6 71.6 55% 96 29.92 0.0
01 13:55 SW 7 10.00 Fair CLR 89.6 71.6 55% 96 29.92 0.0
01 13:35 Vrbl 3 10.00 Fair CLR 89.6 73.4 59% 98 29.93 0.0
01 13:15 Vrbl 3 10.00 Fair CLR 89.6 73.4 59% 98 29.94 0.0
01 12:55 SW 3 10.00 Fair CLR 89.6 71.6 55% 96 29.94 0.0
01 12:35 Calm 10.00 Fair CLR 87.8 71.6 59% 94 29.94 0.0
Date Time (cdt) Wind (mph) Vis. (mi.) Weather Sky Cond. Air Dwpt Max. Min. Relative Humidity Wind Chill (°F) Heat Index (°F) altimeter (in) sea level (mb) 1 hr 3 hr 6 hr
6 hour
Temperature (ºF) Pressure Precipitation (in)